Time;durP1;ratioP1;P1;durP2;ratioP2;P2;SDS_P1;SDS_P2;PMS_P1;PMS_P2;Temp;Humidity;BMP_temperature;BMP_pressure;BME280_temperature;BME280_humidity;BME280_pressure;Samples;Min_cycle;Max_cycle;Signal;HPM_P1;HPM_P2
2021/12/28 00:00:27;;;;;;;;;23.00;22.25;;;;;;;;5289795;28;8758;-79
2021/12/28 00:03:17;;;;;;;;;19.75;19.50;;;;;;;;5273627;28;8753;-77
2021/12/28 00:05:48;;;;;;;;;18.25;18.25;;;;;;;;5237575;28;8785;-77
2021/12/28 00:08:20;;;;;;;;;27.25;27.00;;;;;;;;5253763;28;8859;-78
2021/12/28 00:10:52;;;;;;;;;34.25;31.50;;;;;;;;5253709;28;8836;-78
2021/12/28 00:13:24;;;;;;;;;53.33;48.00;;;;;;;;5270560;28;8838;-78
2021/12/28 00:18:27;;;;;;;;;76.33;54.33;;;;;;;;5253636;28;9239;-78
2021/12/28 00:21:00;;;;;;;;;81.25;60.25;;;;;;;;5236777;28;9551;-80
2021/12/28 00:23:37;;;;;;;;;52.00;47.33;;;;;;;;5253480;28;9861;-79
2021/12/28 00:26:13;;;;;;;;;31.00;30.75;;;;;;;;5254437;28;9000;-77
2021/12/28 00:28:45;;;;;;;;;33.50;31.75;;;;;;;;5237017;28;8857;-80
2021/12/28 00:31:16;;;;;;;;;32.00;32.00;;;;;;;;5237091;28;8753;-79
2021/12/28 00:33:47;;;;;;;;;46.33;39.33;;;;;;;;5253413;28;8774;-78
2021/12/28 00:36:18;;;;;;;;;48.00;43.67;;;;;;;;5288577;28;8926;-78
2021/12/28 00:38:50;;;;;;;;;56.33;50.33;;;;;;;;5270307;28;9331;-78
2021/12/28 00:41:21;;;;;;;;;48.50;42.00;;;;;;;;5253363;28;9373;-77
2021/12/28 00:43:52;;;;;;;;;42.75;38.00;;;;;;;;5236830;28;9550;-77
2021/12/28 00:46:23;;;;;;;;;25.67;23.00;;;;;;;;5270349;28;8805;-79
2021/12/28 00:48:54;;;;;;;;;66.67;54.67;;;;;;;;5236571;28;11422;-79
2021/12/28 00:51:25;;;;;;;;;46.33;44.67;;;;;;;;5237015;28;9416;-80
2021/12/28 00:53:56;;;;;;;;;28.00;27.50;;;;;;;;5253206;28;8871;-77
2021/12/28 00:56:27;;;;;;;;;34.25;30.25;;;;;;;;5254023;28;8774;-75
2021/12/28 00:59:17;;;;;;;;;23.75;23.75;;;;;;;;5255895;28;8758;-75
2021/12/28 01:02:07;;;;;;;;;23.50;23.50;;;;;;;;5270312;28;8823;-76
2021/12/28 01:04:38;;;;;;;;;28.00;27.50;;;;;;;;5253555;28;8850;-76
2021/12/28 01:07:09;;;;;;;;;34.75;32.75;;;;;;;;5269991;28;8774;-76
2021/12/28 01:09:42;;;;;;;;;22.67;21.00;;;;;;;;5269855;28;8794;-76
2021/12/28 01:12:31;;;;;;;;;20.00;20.00;;;;;;;;5255689;28;9469;-76
2021/12/28 01:15:02;;;;;;;;;15.25;13.75;;;;;;;;5269594;28;8932;-76
2021/12/28 01:17:35;;;;;;;;;19.00;17.75;;;;;;;;5253935;28;8781;-76
2021/12/28 01:20:08;;;;;;;;;24.00;24.00;;;;;;;;5270137;28;8773;-77
2021/12/28 01:22:40;;;;;;;;;10.50;10.50;;;;;;;;5255668;28;8846;-76
2021/12/28 01:25:13;;;;;;;;;12.75;12.50;;;;;;;;5256642;28;8766;-76
2021/12/28 01:27:45;;;;;;;;;7.50;6.00;;;;;;;;5240517;28;8765;-77
2021/12/28 01:30:17;;;;;;;;;33.75;32.75;;;;;;;;5256526;28;8866;-77
2021/12/28 01:32:49;;;;;;;;;33.25;31.00;;;;;;;;5239996;28;8774;-77
2021/12/28 01:35:20;;;;;;;;;25.75;24.75;;;;;;;;5240600;28;8778;-76
2021/12/28 01:37:52;;;;;;;;;18.00;15.25;;;;;;;;5240098;28;8774;-77
2021/12/28 01:40:25;;;;;;;;;21.25;21.25;;;;;;;;5256711;28;8816;-77
2021/12/28 01:43:08;;;;;;;;;16.25;15.50;;;;;;;;5256888;28;8789;-77
2021/12/28 01:46:02;;;;;;;;;9.00;9.00;;;;;;;;5291828;28;8823;-76
2021/12/28 01:48:34;;;;;;;;;17.00;16.00;;;;;;;;5240011;28;8814;-76
2021/12/28 01:51:07;;;;;;;;;24.25;23.75;;;;;;;;5256400;28;8872;-77
2021/12/28 01:53:38;;;;;;;;;30.75;27.50;;;;;;;;5240129;28;8861;-79
2021/12/28 01:56:12;;;;;;;;;22.25;18.25;;;;;;;;5256616;28;8784;-79
2021/12/28 01:58:44;;;;;;;;;32.50;28.50;;;;;;;;5256295;28;8900;-79
2021/12/28 02:01:16;;;;;;;;;33.25;31.25;;;;;;;;5291272;28;8772;-80
2021/12/28 02:03:49;;;;;;;;;31.50;30.50;;;;;;;;5257410;28;8796;-80
2021/12/28 02:06:39;;;;;;;;;20.25;19.25;;;;;;;;5258810;28;8773;-78
2021/12/28 02:09:10;;;;;;;;;24.25;23.75;;;;;;;;5239415;28;8788;-77
2021/12/28 02:11:42;;;;;;;;;19.50;19.50;;;;;;;;5256100;28;8849;-77
2021/12/28 02:14:14;;;;;;;;;17.75;16.25;;;;;;;;5255969;28;8780;-76
2021/12/28 02:16:45;;;;;;;;;22.25;22.00;;;;;;;;5239466;28;8764;-78
2021/12/28 02:19:35;;;;;;;;;11.50;11.50;;;;;;;;5273025;28;8788;-77
2021/12/28 02:22:06;;;;;;;;;20.25;18.25;;;;;;;;5272939;28;8789;-78
2021/12/28 02:24:37;;;;;;;;;15.75;15.00;;;;;;;;5239366;28;8799;-78
2021/12/28 02:27:08;;;;;;;;;24.00;22.67;;;;;;;;5255986;28;8780;-77
2021/12/28 02:29:58;;;;;;;;;9.75;9.25;;;;;;;;5258252;28;10996;-78
2021/12/28 02:32:29;;;;;;;;;22.75;22.75;;;;;;;;5238854;28;8761;-78
2021/12/28 02:35:00;;;;;;;;;21.50;20.25;;;;;;;;5255656;28;8792;-79
2021/12/28 02:37:32;;;;;;;;;23.00;22.25;;;;;;;;5272379;28;8779;-79
2021/12/28 02:40:07;;;;;;;;;31.33;29.67;;;;;;;;5272538;28;9369;-79
2021/12/28 02:42:58;;;;;;;;;36.75;29.50;;;;;;;;5258020;28;11492;-80
2021/12/28 02:45:37;;;;;;;;;34.75;29.50;;;;;;;;5255734;28;8892;-81
2021/12/28 02:48:09;;;;;;;;;32.50;29.75;;;;;;;;5256039;28;8795;-80
2021/12/28 02:50:43;;;;;;;;;18.50;18.25;;;;;;;;5255948;28;8942;-80
2021/12/28 02:53:16;;;;;;;;;10.00;9.25;;;;;;;;5272031;28;8828;-80
2021/12/28 02:55:47;;;;;;;;;9.50;9.50;;;;;;;;5272264;28;9614;-80
2021/12/28 02:58:27;;;;;;;;;17.75;17.75;;;;;;;;5255467;28;8883;-80
2021/12/28 03:01:08;;;;;;;;;14.50;14.50;;;;;;;;5255703;28;8793;-80
2021/12/28 03:03:40;;;;;;;;;19.00;18.75;;;;;;;;5272058;28;8749;-79
2021/12/28 03:06:13;;;;;;;;;18.25;12.25;;;;;;;;5255788;28;8791;-76
2021/12/28 03:08:48;;;;;;;;;26.00;23.25;;;;;;;;5290088;28;8776;-80
2021/12/28 03:11:19;;;;;;;;;35.25;31.25;;;;;;;;5255412;28;8764;-79
2021/12/28 03:13:53;;;;;;;;;33.75;31.00;;;;;;;;5272198;28;8797;-78
2021/12/28 03:16:25;;;;;;;;;29.75;29.00;;;;;;;;5254589;28;8775;-80
2021/12/28 03:18:57;;;;;;;;;25.00;22.25;;;;;;;;5254806;28;8895;-80
2021/12/28 03:21:28;;;;;;;;;28.50;26.50;;;;;;;;5238364;28;8764;-79
2021/12/28 03:23:59;;;;;;;;;19.00;19.00;;;;;;;;5272208;28;8829;-79
2021/12/28 03:26:30;;;;;;;;;20.00;20.00;;;;;;;;5254680;28;8844;-80
2021/12/28 03:29:03;;;;;;;;;20.00;20.00;;;;;;;;5254519;28;8792;-79
2021/12/28 03:31:34;;;;;;;;;17.25;16.25;;;;;;;;5271580;28;8757;-80
2021/12/28 03:34:05;;;;;;;;;18.00;17.50;;;;;;;;5255015;28;8798;-80
2021/12/28 03:36:36;;;;;;;;;12.75;12.00;;;;;;;;5271142;28;9444;-71
2021/12/28 03:39:07;;;;;;;;;14.33;12.00;;;;;;;;5272078;28;8796;-71
2021/12/28 03:41:39;;;;;;;;;11.00;11.00;;;;;;;;5270820;28;8903;-71
2021/12/28 03:44:10;;;;;;;;;18.00;17.75;;;;;;;;5270644;28;9487;-71
2021/12/28 03:46:41;;;;;;;;;0.00;0.00;;;;;;;;5289468;28;8799;-77
2021/12/28 03:49:13;;;;;;;;;10.00;9.00;;;;;;;;5270927;28;9072;-78
2021/12/28 03:51:43;;;;;;;;;10.00;9.25;;;;;;;;5271797;28;8784;-74
2021/12/28 03:54:15;;;;;;;;;9.00;8.50;;;;;;;;5271163;28;8765;-79
2021/12/28 03:56:46;;;;;;;;;13.50;13.00;;;;;;;;5254421;28;8773;-78
2021/12/28 03:59:17;;;;;;;;;13.33;13.33;;;;;;;;5290925;28;8773;-76
2021/12/28 04:01:48;;;;;;;;;9.00;9.00;;;;;;;;5259120;28;8773;-78
2021/12/28 04:04:19;;;;;;;;;10.67;9.00;;;;;;;;5295990;28;11444;-77
2021/12/28 04:06:51;;;;;;;;;3.25;3.00;;;;;;;;5256390;28;8873;-75
2021/12/28 04:10:07;;;;;;;;;7.00;6.75;;;;;;;;5256191;28;8828;-75
2021/12/28 04:12:17;;;;;;;;;13.25;12.50;;;;;;;;5282785;28;8791;-75
2021/12/28 04:14:49;;;;;;;;;58.67;48.67;;;;;;;;5256242;28;8776;-77
2021/12/28 04:17:20;;;;;;;;;4.25;4.25;;;;;;;;5253865;28;8926;-79
2021/12/28 04:19:51;;;;;;;;;5.25;5.25;;;;;;;;5270574;28;8760;-75
2021/12/28 04:22:22;;;;;;;;;7.50;7.50;;;;;;;;5253619;28;8784;-76
2021/12/28 04:24:53;;;;;;;;;13.25;12.50;;;;;;;;5288175;28;8781;-77
2021/12/28 04:27:25;;;;;;;;;20.75;20.75;;;;;;;;5270490;28;8763;-76
2021/12/28 04:29:56;;;;;;;;;21.50;20.00;;;;;;;;5253435;28;8881;-77
2021/12/28 04:32:27;;;;;;;;;24.33;23.33;;;;;;;;5270543;28;8776;-76
2021/12/28 04:34:58;;;;;;;;;27.00;24.33;;;;;;;;5270220;28;8773;-77
2021/12/28 04:37:29;;;;;;;;;27.25;22.00;;;;;;;;5270206;28;11425;-75
2021/12/28 04:39:59;;;;;;;;;30.67;29.67;;;;;;;;5270181;28;8926;-75
2021/12/28 04:42:31;;;;;;;;;31.00;30.75;;;;;;;;5253275;28;8792;-76
2021/12/28 04:45:03;;;;;;;;;17.25;17.00;;;;;;;;5269861;28;8804;-75
2021/12/28 04:47:52;;;;;;;;;23.50;20.50;;;;;;;;5270030;28;8857;-76
2021/12/28 04:50:23;;;;;;;;;28.00;27.67;;;;;;;;5253112;28;8831;-75
2021/12/28 04:52:57;;;;;;;;;23.75;22.75;;;;;;;;5269628;28;8799;-74
2021/12/28 04:55:28;;;;;;;;;20.50;20.00;;;;;;;;5253510;28;8784;-75
2021/12/28 04:57:59;;;;;;;;;24.00;23.33;;;;;;;;5256348;28;8784;-75
2021/12/28 05:00:30;;;;;;;;;23.00;22.67;;;;;;;;5292839;28;9132;-75
2021/12/28 05:03:01;;;;;;;;;16.00;16.00;;;;;;;;5257957;28;8865;-75
2021/12/28 05:05:32;;;;;;;;;14.25;11.25;;;;;;;;5241096;28;8930;-76
2021/12/28 05:08:04;;;;;;;;;18.25;17.00;;;;;;;;5240348;28;9498;-75
2021/12/28 05:10:36;;;;;;;;;31.50;28.25;;;;;;;;5273902;28;8831;-76
2021/12/28 05:13:07;;;;;;;;;39.25;35.00;;;;;;;;5240544;28;8773;-76
2021/12/28 05:15:42;;;;;;;;;29.75;24.50;;;;;;;;5257255;28;9491;-75
2021/12/28 05:18:13;;;;;;;;;18.00;18.00;;;;;;;;5274242;28;8784;-75
2021/12/28 05:20:44;;;;;;;;;23.50;23.50;;;;;;;;5274202;28;9562;-75
2021/12/28 05:23:16;;;;;;;;;17.25;16.75;;;;;;;;5274092;28;8787;-75
2021/12/28 05:25:47;;;;;;;;;18.75;17.00;;;;;;;;5239984;28;8784;-76
2021/12/28 05:28:18;;;;;;;;;19.25;15.75;;;;;;;;5257446;28;8772;-76
2021/12/28 05:30:49;;;;;;;;;12.67;12.67;;;;;;;;5274038;28;9513;-76
2021/12/28 05:33:21;;;;;;;;;15.33;15.33;;;;;;;;5256733;28;9460;-76
2021/12/28 05:35:52;;;;;;;;;16.75;16.75;;;;;;;;5291917;28;8768;-77
2021/12/28 05:38:23;;;;;;;;;19.75;17.00;;;;;;;;5240649;28;8800;-77
2021/12/28 05:40:54;;;;;;;;;16.00;16.00;;;;;;;;5256871;28;8860;-76
2021/12/28 05:43:25;;;;;;;;;11.00;11.00;;;;;;;;5273498;28;11479;-77
2021/12/28 05:45:56;;;;;;;;;15.67;15.33;;;;;;;;5273536;28;8796;-77
2021/12/28 05:48:27;;;;;;;;;16.00;15.00;;;;;;;;5273450;28;8906;-77
2021/12/28 05:50:59;;;;;;;;;13.00;13.00;;;;;;;;5240208;28;9898;-77
2021/12/28 05:53:30;;;;;;;;;13.50;13.00;;;;;;;;5290123;28;11450;-77
2021/12/28 05:56:19;;;;;;;;;16.25;13.75;;;;;;;;5273396;28;9502;-75
2021/12/28 06:03:19;;;;;;;;;18.75;18.75;;;;;;;;5300907;27;11105;-77
2021/12/28 06:05:50;;;;;;;;;13.00;13.00;;;;;;;;5260306;27;8781;-78
2021/12/28 06:12:45;;;;;;;;;20.00;19.00;;;;;;;;5311694;27;8770;-74
2021/12/28 06:15:16;;;;;;;;;12.00;12.00;;;;;;;;5293784;27;8770;-73
2021/12/28 06:22:22;;;;;;;;;43.50;36.50;;;;;;;;5312357;27;9510;-79
2021/12/28 06:24:53;;;;;;;;;21.33;21.33;;;;;;;;5276756;27;8810;-76
2021/12/28 06:31:47;;;;;;;;;16.50;16.50;;;;;;;;5290529;28;8760;-67
2021/12/28 06:34:18;;;;;;;;;19.00;19.00;;;;;;;;5289731;28;8788;-73
2021/12/28 06:36:49;;;;;;;;;19.00;19.00;;;;;;;;5272489;28;8768;-74
2021/12/28 06:47:31;;;;;;;;;16.25;15.75;;;;;;;;5275992;27;8798;-73
2021/12/28 06:50:20;;;;;;;;;18.00;18.00;;;;;;;;5293062;27;8797;-73
2021/12/28 07:01:37;;;;;;;;;27.75;27.75;;;;;;;;5311154;27;9405;-79
2021/12/28 07:04:09;;;;;;;;;17.50;17.00;;;;;;;;5259394;27;8774;-83
2021/12/28 07:06:39;;;;;;;;;21.00;20.33;;;;;;;;5259005;27;8770;-82
2021/12/28 07:09:10;;;;;;;;;20.67;20.00;;;;;;;;5259390;27;11455;-82
2021/12/28 07:11:41;;;;;;;;;11.33;11.33;;;;;;;;5276273;27;11435;-83
2021/12/28 07:14:31;;;;;;;;;18.25;17.00;;;;;;;;5292814;27;8790;-83
2021/12/28 07:17:02;;;;;;;;;19.50;18.50;;;;;;;;5259315;27;8777;-83
2021/12/28 07:19:33;;;;;;;;;21.25;21.00;;;;;;;;5274887;27;8829;-83
2021/12/28 07:22:04;;;;;;;;;14.00;14.00;;;;;;;;5292876;27;8762;-83
2021/12/28 07:24:54;;;;;;;;;20.75;19.50;;;;;;;;5278278;27;8790;-83
2021/12/28 07:27:25;;;;;;;;;18.50;16.50;;;;;;;;5259077;27;8849;-83
2021/12/28 07:30:14;;;;;;;;;14.75;14.75;;;;;;;;5278682;27;8948;-84
2021/12/28 07:32:45;;;;;;;;;15.00;12.00;;;;;;;;5276132;27;8916;-83
2021/12/28 07:35:17;;;;;;;;;17.50;17.50;;;;;;;;5275557;27;12182;-84
2021/12/28 07:37:48;;;;;;;;;9.25;9.25;;;;;;;;5275704;27;8839;-84
2021/12/28 07:40:19;;;;;;;;;14.00;14.00;;;;;;;;5275283;27;8794;-84
2021/12/28 07:42:50;;;;;;;;;16.50;16.50;;;;;;;;5275806;27;9559;-84
2021/12/28 07:45:22;;;;;;;;;13.25;12.50;;;;;;;;5258365;27;8830;-83
2021/12/28 07:47:53;;;;;;;;;11.50;10.50;;;;;;;;5251260;28;8900;-83
2021/12/28 07:50:24;;;;;;;;;10.25;10.25;;;;;;;;5288156;28;8829;-85
2021/12/28 07:52:55;;;;;;;;;14.75;13.25;;;;;;;;5271865;28;8778;-84
2021/12/28 07:55:27;;;;;;;;;13.50;13.25;;;;;;;;5288499;28;8921;-84
2021/12/28 07:57:57;;;;;;;;;11.00;11.00;;;;;;;;5271783;28;8782;-84
2021/12/28 08:00:29;;;;;;;;;7.25;7.25;;;;;;;;5288199;28;8782;-85
2021/12/28 08:03:03;;;;;;;;;9.50;9.50;;;;;;;;5271008;28;8778;-85
2021/12/28 08:05:53;;;;;;;;;11.75;11.25;;;;;;;;5288038;28;8769;-84
2021/12/28 08:08:24;;;;;;;;;12.00;12.00;;;;;;;;5270833;28;8820;-85
2021/12/28 08:10:57;;;;;;;;;10.25;10.25;;;;;;;;5270892;28;8794;-84
2021/12/28 08:13:46;;;;;;;;;15.25;15.25;;;;;;;;5288172;28;8774;-85
2021/12/28 08:16:17;;;;;;;;;13.67;12.33;;;;;;;;5270571;28;8762;-84
2021/12/28 08:18:48;;;;;;;;;12.33;12.33;;;;;;;;5253913;28;8800;-85
2021/12/28 08:21:19;;;;;;;;;17.33;16.00;;;;;;;;5253677;28;8773;-84
2021/12/28 08:23:50;;;;;;;;;19.25;14.25;;;;;;;;5270799;28;8928;-84
2021/12/28 08:26:20;;;;;;;;;19.00;16.67;;;;;;;;5271020;28;8774;-84
2021/12/28 08:29:10;;;;;;;;;29.75;28.25;;;;;;;;5273000;28;8793;-83
2021/12/28 08:31:41;;;;;;;;;24.50;24.50;;;;;;;;5270876;28;8774;-84
2021/12/28 08:34:12;;;;;;;;;22.00;22.00;;;;;;;;5254108;28;9479;-84
2021/12/28 08:36:42;;;;;;;;;19.33;16.67;;;;;;;;5253638;28;9512;-83
2021/12/28 08:39:15;;;;;;;;;15.00;15.00;;;;;;;;5253727;28;8798;-83
2021/12/28 08:41:45;;;;;;;;;15.75;15.00;;;;;;;;5288485;28;8767;-84
2021/12/28 08:44:16;;;;;;;;;13.67;13.67;;;;;;;;5253937;28;8794;-84
2021/12/28 08:46:47;;;;;;;;;9.75;9.75;;;;;;;;5269587;28;8810;-84
2021/12/28 08:49:36;;;;;;;;;0.00;0.00;;;;;;;;5287954;28;8802;-84
2021/12/28 08:52:07;;;;;;;;;12.00;12.00;;;;;;;;5253796;28;8774;-84
2021/12/28 08:54:38;;;;;;;;;13.67;13.67;;;;;;;;5270182;28;8790;-85
2021/12/28 08:57:09;;;;;;;;;8.33;8.33;;;;;;;;5253437;28;8781;-85
2021/12/28 08:59:41;;;;;;;;;10.00;9.67;;;;;;;;5270623;28;8809;-84
2021/12/28 09:02:12;;;;;;;;;14.25;14.25;;;;;;;;5270335;28;11600;-84
2021/12/28 09:04:43;;;;;;;;;10.67;10.67;;;;;;;;5253306;28;8820;-84
2021/12/28 09:07:16;;;;;;;;;18.25;18.25;;;;;;;;5286967;28;11548;-84
2021/12/28 09:09:47;;;;;;;;;17.00;17.00;;;;;;;;5253406;28;9532;-84
2021/12/28 09:12:18;;;;;;;;;23.33;18.67;;;;;;;;5253778;28;8781;-84
2021/12/28 09:15:08;;;;;;;;;14.00;13.50;;;;;;;;5273745;28;8815;-83
2021/12/28 09:17:39;;;;;;;;;10.25;9.25;;;;;;;;5254296;28;8769;-83
2021/12/28 09:20:12;;;;;;;;;24.00;21.25;;;;;;;;5270864;28;8924;-83
2021/12/28 09:22:43;;;;;;;;;16.00;16.00;;;;;;;;5254645;28;8793;-83
2021/12/28 09:25:16;;;;;;;;;19.00;19.00;;;;;;;;5254151;28;9493;-85
2021/12/28 09:27:47;;;;;;;;;19.50;19.00;;;;;;;;5270705;28;8823;-84
2021/12/28 09:30:18;;;;;;;;;21.25;21.25;;;;;;;;5270916;28;8866;-84
2021/12/28 09:32:49;;;;;;;;;28.50;21.25;;;;;;;;5255434;28;8790;-83
2021/12/28 09:35:20;;;;;;;;;34.67;33.33;;;;;;;;5253651;28;8839;-84
2021/12/28 09:37:51;;;;;;;;;32.33;29.33;;;;;;;;5253498;28;8789;-83
2021/12/28 09:40:22;;;;;;;;;27.00;24.33;;;;;;;;5287135;28;8855;-84
2021/12/28 09:42:53;;;;;;;;;18.00;18.00;;;;;;;;5272222;28;11430;-83
2021/12/28 09:45:24;;;;;;;;;30.33;28.67;;;;;;;;5278296;27;8827;-83
2021/12/28 09:47:55;;;;;;;;;30.50;30.50;;;;;;;;5278531;27;8758;-83
2021/12/28 09:50:27;;;;;;;;;18.00;17.50;;;;;;;;5278964;27;8795;-83
2021/12/28 09:53:00;;;;;;;;;18.75;18.75;;;;;;;;5263647;27;8825;-83
2021/12/28 09:55:31;;;;;;;;;26.00;23.50;;;;;;;;5264556;27;9553;-83
2021/12/28 09:58:02;;;;;;;;;18.00;13.00;;;;;;;;5282427;27;8940;-83
2021/12/28 10:00:33;;;;;;;;;22.50;21.25;;;;;;;;5266852;27;9623;-83
2021/12/28 10:03:04;;;;;;;;;23.67;23.67;;;;;;;;5285171;27;8775;-83
2021/12/28 10:05:35;;;;;;;;;21.33;21.33;;;;;;;;5302869;27;11364;-83
2021/12/28 10:08:06;;;;;;;;;14.25;14.25;;;;;;;;5269622;27;10911;-84
2021/12/28 10:10:41;;;;;;;;;11.00;11.00;;;;;;;;5306292;27;8799;-84
2021/12/28 10:13:30;;;;;;;;;13.50;13.50;;;;;;;;5291208;27;8756;-82
2021/12/28 10:16:01;;;;;;;;;18.67;16.67;;;;;;;;5272240;27;8786;-82
2021/12/28 10:18:32;;;;;;;;;25.33;25.33;;;;;;;;5272005;27;8916;-83
2021/12/28 10:21:04;;;;;;;;;17.25;17.25;;;;;;;;5289844;27;8804;-82
2021/12/28 10:23:35;;;;;;;;;14.50;13.25;;;;;;;;5306074;27;8763;-82
2021/12/28 10:26:07;;;;;;;;;28.67;26.33;;;;;;;;5272678;27;8771;-82
2021/12/28 10:28:38;;;;;;;;;23.50;21.75;;;;;;;;5272592;27;8790;-82
2021/12/28 10:31:17;;;;;;;;;22.00;19.25;;;;;;;;5289018;27;8896;-82
2021/12/28 10:33:53;;;;;;;;;12.25;12.25;;;;;;;;5323275;27;8759;-83
2021/12/28 10:36:45;;;;;;;;;8.75;8.75;;;;;;;;5292125;27;8760;-83
2021/12/28 10:39:16;;;;;;;;;32.00;31.25;;;;;;;;5288140;27;8779;-84
2021/12/28 10:41:47;;;;;;;;;24.33;22.33;;;;;;;;5272477;27;8756;-83
2021/12/28 10:44:18;;;;;;;;;14.33;14.33;;;;;;;;5288765;27;11419;-83
2021/12/28 10:46:49;;;;;;;;;12.00;12.00;;;;;;;;5305513;27;8879;-82
2021/12/28 10:49:35;;;;;;;;;12.33;12.33;;;;;;;;5265011;27;8799;-83
2021/12/28 10:52:29;;;;;;;;;10.50;10.50;;;;;;;;5280941;27;8755;-83
2021/12/28 10:55:17;;;;;;;;;11.75;10.75;;;;;;;;5313848;27;8752;-84
2021/12/28 10:57:51;;;;;;;;;7.75;7.75;;;;;;;;5261870;27;8828;-84
2021/12/28 11:00:25;;;;;;;;;5.00;5.00;;;;;;;;5294657;27;9588;-82
2021/12/28 11:03:17;;;;;;;;;4.50;4.50;;;;;;;;5277880;27;9502;-83
2021/12/28 11:05:48;;;;;;;;;45.25;41.50;;;;;;;;5276200;27;8942;-84
2021/12/28 11:08:20;;;;;;;;;27.25;25.25;;;;;;;;5260306;27;9501;-84
2021/12/28 11:10:52;;;;;;;;;18.50;17.25;;;;;;;;5294417;27;8796;-83
2021/12/28 11:13:25;;;;;;;;;10.00;9.00;;;;;;;;5275991;27;8756;-82
2021/12/28 11:15:57;;;;;;;;;13.25;12.50;;;;;;;;5275993;27;8844;-83
2021/12/28 11:18:31;;;;;;;;;9.50;8.75;;;;;;;;5259487;27;8759;-83
2021/12/28 11:21:10;;;;;;;;;9.75;9.25;;;;;;;;5292542;27;8792;-83
2021/12/28 11:23:42;;;;;;;;;8.50;8.50;;;;;;;;5275746;27;8767;-83
2021/12/28 11:26:13;;;;;;;;;13.25;12.50;;;;;;;;5276281;27;8760;-83
2021/12/28 11:28:51;;;;;;;;;6.33;6.33;;;;;;;;5311457;27;8776;-83
2021/12/28 11:31:24;;;;;;;;;15.00;13.50;;;;;;;;5275566;27;8776;-83
2021/12/28 11:33:55;;;;;;;;;15.75;15.00;;;;;;;;5292743;27;8775;-83
2021/12/28 11:36:34;;;;;;;;;13.00;13.00;;;;;;;;5275477;27;8782;-83
2021/12/28 11:39:08;;;;;;;;;10.25;10.25;;;;;;;;5258473;27;8768;-82
2021/12/28 11:41:40;;;;;;;;;11.25;11.00;;;;;;;;5258653;27;8756;-84
2021/12/28 11:44:11;;;;;;;;;18.75;18.75;;;;;;;;5275846;27;9502;-83
2021/12/28 11:47:02;;;;;;;;;17.75;17.75;;;;;;;;5277131;27;9561;-83
2021/12/28 11:49:34;;;;;;;;;0.25;0.00;;;;;;;;5258435;27;8891;-82
2021/12/28 11:52:06;;;;;;;;;13.00;12.00;;;;;;;;5275263;27;8751;-81
2021/12/28 11:54:44;;;;;;;;;17.75;13.50;;;;;;;;5242778;27;8861;-82
2021/12/28 11:57:34;;;;;;;;;17.75;16.25;;;;;;;;5292132;27;8848;-82
2021/12/28 12:00:10;;;;;;;;;14.50;12.25;;;;;;;;5292153;27;8787;-83
2021/12/28 12:02:49;;;;;;;;;15.25;15.25;;;;;;;;5292417;27;8784;-82
2021/12/28 12:05:26;;;;;;;;;12.25;9.50;;;;;;;;5275677;27;8752;-82
2021/12/28 12:08:16;;;;;;;;;12.25;11.25;;;;;;;;5277485;27;8890;-82
2021/12/28 12:10:49;;;;;;;;;12.50;12.50;;;;;;;;5292099;27;8799;-82
2021/12/28 12:13:48;;;;;;;;;17.00;17.00;;;;;;;;5298302;27;8882;-83
2021/12/28 12:16:19;;;;;;;;;19.50;19.25;;;;;;;;5280363;27;8760;-83
2021/12/28 12:18:50;;;;;;;;;17.33;17.33;;;;;;;;5260494;27;8785;-82
2021/12/28 12:21:21;;;;;;;;;16.50;13.25;;;;;;;;5276529;27;8744;-83
2021/12/28 12:23:52;;;;;;;;;34.33;32.67;;;;;;;;5258284;27;8956;-83
2021/12/28 12:26:30;;;;;;;;;18.00;18.00;;;;;;;;5257715;27;8791;-83
2021/12/28 12:29:02;;;;;;;;;16.00;16.00;;;;;;;;5257867;27;8771;-82
2021/12/28 12:31:52;;;;;;;;;10.75;10.75;;;;;;;;5291679;27;8778;-82
2021/12/28 12:34:28;;;;;;;;;12.50;12.00;;;;;;;;5258106;27;8752;-82
2021/12/28 12:36:58;;;;;;;;;13.00;13.00;;;;;;;;5274920;27;8760;-81
2021/12/28 12:39:37;;;;;;;;;14.67;14.67;;;;;;;;5257566;27;8780;-81
2021/12/28 12:42:10;;;;;;;;;15.25;15.25;;;;;;;;5291632;27;9466;-82
2021/12/28 12:44:41;;;;;;;;;17.50;17.50;;;;;;;;5310312;27;8768;-82
2021/12/28 12:47:12;;;;;;;;;16.67;13.00;;;;;;;;5257165;27;9550;-82
2021/12/28 12:49:43;;;;;;;;;10.67;9.67;;;;;;;;5274545;27;8768;-79
2021/12/28 12:52:16;;;;;;;;;10.00;10.00;;;;;;;;5274462;27;11309;-83
2021/12/28 12:54:52;;;;;;;;;12.25;12.25;;;;;;;;5274229;27;11339;-82
2021/12/28 12:57:24;;;;;;;;;15.00;15.00;;;;;;;;5274319;27;8763;-83
2021/12/28 12:59:57;;;;;;;;;6.75;6.50;;;;;;;;5257708;27;8782;-82
2021/12/28 13:02:30;;;;;;;;;11.50;10.25;;;;;;;;5257391;27;9506;-75
2021/12/28 13:05:09;;;;;;;;;12.50;12.00;;;;;;;;5257544;27;8849;-82
2021/12/28 13:07:40;;;;;;;;;4.50;4.50;;;;;;;;5257792;27;8772;-84
2021/12/28 13:10:17;;;;;;;;;15.67;15.67;;;;;;;;5274165;27;9525;-82
2021/12/28 13:12:53;;;;;;;;;17.25;17.00;;;;;;;;5258968;27;8862;-79
2021/12/28 13:15:27;;;;;;;;;24.75;22.25;;;;;;;;5274817;27;8764;-81
2021/12/28 13:17:58;;;;;;;;;22.25;22.25;;;;;;;;5292931;27;8855;-80
2021/12/28 13:20:33;;;;;;;;;20.50;20.50;;;;;;;;5296160;27;8771;-78
2021/12/28 13:23:06;;;;;;;;;22.00;20.75;;;;;;;;5278484;27;8790;-81
2021/12/28 13:25:44;;;;;;;;;35.25;32.25;;;;;;;;5261681;27;8748;-83
2021/12/28 13:28:24;;;;;;;;;19.25;18.25;;;;;;;;5278375;27;8776;-81
2021/12/28 13:30:55;;;;;;;;;26.50;26.50;;;;;;;;5314159;27;8877;-79
2021/12/28 13:33:26;;;;;;;;;26.67;23.33;;;;;;;;5278427;27;8765;-82
2021/12/28 13:35:57;;;;;;;;;28.75;25.00;;;;;;;;5261530;27;8856;-82
2021/12/28 13:38:28;;;;;;;;;26.00;25.00;;;;;;;;5261048;27;8894;-80
2021/12/28 13:40:59;;;;;;;;;29.00;25.67;;;;;;;;5277928;27;8898;-78
2021/12/28 13:43:33;;;;;;;;;28.00;25.50;;;;;;;;5277885;27;10243;-80
2021/12/28 13:46:05;;;;;;;;;28.00;28.00;;;;;;;;5260899;27;8779;-81
2021/12/28 13:48:58;;;;;;;;;43.50;42.00;;;;;;;;5279807;27;8791;-82
2021/12/28 13:51:30;;;;;;;;;24.25;24.00;;;;;;;;5277869;27;8803;-82
2021/12/28 13:54:04;;;;;;;;;26.25;23.50;;;;;;;;5277406;27;9458;-80
2021/12/28 13:56:37;;;;;;;;;29.75;27.50;;;;;;;;5278934;27;8840;-80
2021/12/28 13:59:10;;;;;;;;;22.75;22.75;;;;;;;;5278834;27;8835;-80
2021/12/28 14:01:43;;;;;;;;;23.25;22.75;;;;;;;;5260264;27;8784;-81
2021/12/28 14:04:19;;;;;;;;;20.50;19.50;;;;;;;;5294642;27;8827;-82
2021/12/28 14:11:13;;;;;;;;;10.00;9.00;;;;;;;;5312719;27;8760;-78
2021/12/28 14:13:45;;;;;;;;;17.00;16.00;;;;;;;;5277098;27;8779;-77
2021/12/28 14:16:16;;;;;;;;;24.00;21.25;;;;;;;;5278037;27;8798;-78
2021/12/28 14:18:48;;;;;;;;;20.33;19.67;;;;;;;;5294335;27;8764;-78
2021/12/28 14:21:21;;;;;;;;;22.75;22.75;;;;;;;;5260163;27;8877;-78
2021/12/28 14:24:10;;;;;;;;;7.00;6.75;;;;;;;;5279239;27;8795;-78
2021/12/28 14:26:59;;;;;;;;;7.75;7.75;;;;;;;;5321884;27;8760;-80
2021/12/28 14:29:32;;;;;;;;;9.75;9.75;;;;;;;;5320267;27;8780;-76
2021/12/28 14:32:10;;;;;;;;;4.67;4.67;;;;;;;;5299751;27;8786;-73
2021/12/28 14:34:43;;;;;;;;;9.75;9.75;;;;;;;;5277162;27;8828;-80
2021/12/28 14:37:21;;;;;;;;;6.25;6.25;;;;;;;;5279242;27;8824;-77
2021/12/28 14:39:53;;;;;;;;;14.00;11.50;;;;;;;;5293942;27;8760;-77
2021/12/28 14:42:29;;;;;;;;;10.75;10.50;;;;;;;;5293630;27;8794;-74
2021/12/28 14:45:02;;;;;;;;;9.75;9.75;;;;;;;;5312194;27;8776;-77
2021/12/28 14:47:35;;;;;;;;;2.80;2.20;;;;;;;;5276725;27;9504;-78
2021/12/28 14:50:12;;;;;;;;;7.25;7.25;;;;;;;;5293916;27;8786;-80
2021/12/28 14:52:45;;;;;;;;;9.50;9.50;;;;;;;;5261158;27;8888;-80
2021/12/28 14:55:18;;;;;;;;;5.50;5.50;;;;;;;;5259584;27;8766;-78
2021/12/28 14:57:54;;;;;;;;;6.50;6.50;;;;;;;;5293744;27;8789;-78
2021/12/28 15:00:25;;;;;;;;;10.00;10.00;;;;;;;;5259819;27;8866;-79
2021/12/28 15:02:56;;;;;;;;;12.50;11.50;;;;;;;;5276218;27;8782;-79
2021/12/28 15:05:38;;;;;;;;;7.67;7.67;;;;;;;;5293216;27;8847;-81
2021/12/28 15:08:14;;;;;;;;;12.25;11.75;;;;;;;;5278720;27;8763;-82
2021/12/28 15:10:46;;;;;;;;;16.75;15.50;;;;;;;;5260420;27;8856;-76
2021/12/28 15:13:18;;;;;;;;;18.25;17.00;;;;;;;;5264393;27;8770;-79
2021/12/28 15:15:49;;;;;;;;;16.00;15.50;;;;;;;;5260988;27;8786;-83
2021/12/28 15:18:21;;;;;;;;;11.00;10.00;;;;;;;;5259418;27;8854;-79
2021/12/28 15:21:13;;;;;;;;;6.00;6.00;;;;;;;;5279170;27;8762;-76
2021/12/28 15:23:44;;;;;;;;;20.50;18.75;;;;;;;;5292782;27;8778;-77
2021/12/28 15:26:15;;;;;;;;;19.00;19.00;;;;;;;;5276442;27;8808;-81
2021/12/28 15:28:46;;;;;;;;;11.33;10.67;;;;;;;;5262624;27;8766;-79
2021/12/28 15:31:17;;;;;;;;;18.33;18.33;;;;;;;;5275524;27;8794;-78
2021/12/28 15:33:48;;;;;;;;;5.00;4.67;;;;;;;;5293138;27;8766;-81
2021/12/28 15:36:19;;;;;;;;;18.00;15.25;;;;;;;;5259024;27;10311;-83
2021/12/28 15:38:51;;;;;;;;;14.00;14.00;;;;;;;;5258655;27;8782;-82
2021/12/28 15:41:22;;;;;;;;;17.50;17.50;;;;;;;;5291313;27;8905;-83
2021/12/28 15:43:53;;;;;;;;;19.75;19.75;;;;;;;;5275647;27;8858;-84
2021/12/28 15:46:25;;;;;;;;;13.50;12.25;;;;;;;;5258635;27;9541;-86
2021/12/28 15:48:56;;;;;;;;;12.50;12.00;;;;;;;;5258524;27;8782;-83
2021/12/28 15:51:27;;;;;;;;;19.00;17.67;;;;;;;;5275149;27;8885;-79
2021/12/28 15:53:58;;;;;;;;;5.75;5.50;;;;;;;;5292948;27;11425;-82